Time;durP1;ratioP1;P1;durP2;ratioP2;P2;SDS_P1;SDS_P2;PMS_P1;PMS_P2;Temp;Humidity;BMP_temperature;BMP_pressure;BME280_temperature;BME280_humidity;BME280_pressure;Samples;Min_cycle;Max_cycle;Signal;HPM_P1;HPM_P2
2023/08/04 00:00:56;;;;;;;9.57;0.80;;;13.80;99.90;;;;;;5037030;28;20527;-77
2023/08/04 00:03:21;;;;;;;3.88;0.30;;;13.80;99.90;;;;;;5035947;28;20029;-78
2023/08/04 00:05:47;;;;;;;7.78;0.20;;;14.00;99.90;;;;;;5037145;28;20112;-78
2023/08/04 00:08:12;;;;;;;2.15;0.10;;;13.80;99.90;;;;;;5035799;28;20509;-76
2023/08/04 00:10:38;;;;;;;8.10;0.85;;;13.70;99.90;;;;;;5035638;28;20536;-78
2023/08/04 00:13:03;;;;;;;7.78;0.85;;;13.70;99.90;;;;;;5035625;28;20499;-78
2023/08/04 00:15:29;;;;;;;4.40;0.10;;;13.70;99.90;;;;;;5036528;28;20017;-78
2023/08/04 00:17:56;;;;;;;5.07;0.40;;;13.60;99.90;;;;;;5036367;28;20026;-78
2023/08/04 00:20:22;;;;;;;2.38;0.35;;;13.60;99.90;;;;;;5036478;28;20100;-78
2023/08/04 00:22:47;;;;;;;6.50;1.10;;;13.60;99.90;;;;;;5035514;28;20057;-78
2023/08/04 00:25:13;;;;;;;6.63;0.40;;;13.50;99.90;;;;;;5035325;28;20064;-77
2023/08/04 00:27:39;;;;;;;4.82;0.22;;;13.60;99.90;;;;;;5036284;28;20104;-78
2023/08/04 00:30:05;;;;;;;8.90;0.65;;;13.60;99.90;;;;;;5035070;28;20029;-78
2023/08/04 00:32:30;;;;;;;5.55;0.65;;;13.60;99.90;;;;;;5036006;28;20491;-78
2023/08/04 00:34:56;;;;;;;4.68;0.15;;;13.70;99.90;;;;;;5036680;28;20022;-78
2023/08/04 00:37:22;;;;;;;3.30;0.28;;;13.80;99.90;;;;;;5036674;28;20074;-77
2023/08/04 00:39:47;;;;;;;4.47;0.35;;;14.10;99.90;;;;;;5035400;28;20013;-78
2023/08/04 00:42:13;;;;;;;8.82;1.55;;;13.90;99.90;;;;;;5036569;28;20014;-77
2023/08/04 00:44:38;;;;;;;7.68;0.47;;;14.00;99.90;;;;;;5036294;28;20048;-78
2023/08/04 00:47:05;;;;;;;2.47;0.20;;;14.10;99.90;;;;;;5034683;28;20025;-78
2023/08/04 00:49:31;;;;;;;4.55;0.32;;;14.20;99.90;;;;;;5034514;28;20018;-76
2023/08/04 00:51:58;;;;;;;1.25;0.00;;;14.20;99.90;;;;;;5034890;28;20025;-78
2023/08/04 00:54:24;;;;;;;2.90;0.20;;;14.30;99.90;;;;;;5034843;28;20025;-78
2023/08/04 00:56:54;;;;;;;2.05;0.43;;;14.50;99.90;;;;;;5035529;28;20032;-78
2023/08/04 00:59:20;;;;;;;3.28;0.50;;;14.40;99.90;;;;;;5035330;28;20020;-78
2023/08/04 01:01:47;;;;;;;6.38;0.85;;;14.50;99.90;;;;;;5034444;28;20091;-78
2023/08/04 01:04:13;;;;;;;1.75;0.10;;;14.50;99.90;;;;;;5035605;28;20104;-78
2023/08/04 01:06:55;;;;;;;6.18;0.08;;;14.60;99.90;;;;;;5035916;28;20429;-78
2023/08/04 01:09:34;;;;;;;5.25;0.43;;;14.60;99.90;;;;;;5035935;28;20029;-78
2023/08/04 01:12:10;;;;;;;3.05;0.20;;;14.60;99.90;;;;;;5034441;28;20128;-78
2023/08/04 01:14:41;;;;;;;6.90;0.38;;;14.70;99.90;;;;;;5034019;28;20033;-78
2023/08/04 01:17:26;;;;;;;5.68;0.93;;;14.70;99.90;;;;;;5034615;28;20021;-78
2023/08/04 01:19:52;;;;;;;1.48;0.43;;;14.70;99.90;;;;;;5035519;28;20029;-77
2023/08/04 01:22:19;;;;;;;4.38;0.45;;;14.70;99.90;;;;;;5035036;28;20029;-78
2023/08/04 01:24:45;;;;;;;1.73;0.05;;;14.80;99.90;;;;;;5033421;28;20441;-77
2023/08/04 01:27:13;;;;;;;5.95;1.00;;;14.70;99.90;;;;;;5034938;28;20052;-77
2023/08/04 01:29:44;;;;;;;3.70;0.50;;;14.70;99.90;;;;;;5034613;28;20091;-78
2023/08/04 01:32:09;;;;;;;6.18;0.20;;;14.80;99.90;;;;;;5033299;28;20103;-78
2023/08/04 01:34:35;;;;;;;5.25;0.38;;;14.80;99.90;;;;;;5033401;28;20053;-78
2023/08/04 01:37:01;;;;;;;7.10;0.45;;;14.70;99.90;;;;;;5034789;28;20441;-77
2023/08/04 01:39:29;;;;;;;5.32;0.40;;;14.80;99.90;;;;;;5034451;28;20488;-77
2023/08/04 01:41:55;;;;;;;4.10;0.10;;;14.80;99.90;;;;;;5034822;28;20029;-77
2023/08/04 01:44:20;;;;;;;3.40;0.10;;;14.70;99.90;;;;;;5034525;28;20063;-78
2023/08/04 01:46:46;;;;;;;6.45;1.50;;;14.70;99.90;;;;;;5035129;28;20025;-77
2023/08/04 01:49:11;;;;;;;5.53;0.20;;;14.70;99.90;;;;;;5033509;28;20115;-78
2023/08/04 01:51:37;;;;;;;3.05;0.60;;;14.70;99.90;;;;;;5033966;28;20125;-78
2023/08/04 01:54:02;;;;;;;2.92;0.22;;;14.70;99.90;;;;;;5034164;28;20046;-78
2023/08/04 01:56:28;;;;;;;2.42;0.20;;;14.60;99.90;;;;;;5035402;28;20044;-78
2023/08/04 01:58:53;;;;;;;5.05;0.47;;;14.50;99.90;;;;;;5035132;28;20472;-77
2023/08/04 02:01:20;;;;;;;3.80;0.70;;;14.50;99.90;;;;;;5034709;28;20392;-76
2023/08/04 02:03:45;;;;;;;13.10;1.15;;;14.40;99.90;;;;;;5035312;28;20033;-77
2023/08/04 02:06:12;;;;;;;6.28;0.25;;;14.40;99.90;;;;;;5033548;28;20029;-75
2023/08/04 02:08:37;;;;;;;5.15;0.43;;;14.30;99.90;;;;;;5034736;28;20053;-76
2023/08/04 02:11:03;;;;;;;6.13;0.20;;;14.70;99.90;;;;;;5034457;28;20106;-78
2023/08/04 02:13:28;;;;;;;10.48;0.95;;;14.20;99.90;;;;;;5034799;28;20400;-78
2023/08/04 02:15:54;;;;;;;3.90;0.20;;;15.10;99.90;;;;;;5033546;28;20025;-78
2023/08/04 02:18:19;;;;;;;7.15;0.90;;;14.10;99.90;;;;;;5035087;28;20412;-78
2023/08/04 02:20:45;;;;;;;4.25;0.15;;;14.10;99.90;;;;;;5033640;28;20033;-79
2023/08/04 02:23:10;;;;;;;6.68;0.30;;;14.10;99.90;;;;;;5034444;28;20033;-78
2023/08/04 02:25:36;;;;;;;7.38;0.32;;;14.10;99.90;;;;;;5033214;28;20052;-78
2023/08/04 02:28:02;;;;;;;4.63;0.00;;;14.20;99.90;;;;;;5033464;28;20119;-77
2023/08/04 02:30:28;;;;;;;4.55;0.32;;;14.20;99.90;;;;;;5033216;28;20029;-78
2023/08/04 02:32:53;;;;;;;4.45;0.63;;;14.20;99.90;;;;;;5034464;28;20500;-78
2023/08/04 02:35:19;;;;;;;2.40;0.20;;;16.00;99.90;;;;;;5034266;28;20025;-78
2023/08/04 02:37:45;;;;;;;6.10;0.82;;;14.30;99.90;;;;;;5033292;28;20029;-76
2023/08/04 02:40:11;;;;;;;2.70;0.13;;;14.40;99.90;;;;;;5034077;28;20155;-78
2023/08/04 02:42:37;;;;;;;2.30;0.43;;;14.40;99.90;;;;;;5037235;28;20512;-78
2023/08/04 02:45:03;;;;;;;8.73;1.23;;;14.90;99.90;;;;;;5036647;28;20037;-78
2023/08/04 02:47:28;;;;;;;3.38;0.70;;;14.60;99.90;;;;;;5036419;28;20036;-77
2023/08/04 02:49:54;;;;;;;3.95;0.10;;;15.40;99.90;;;;;;5036636;28;20034;-77
2023/08/04 02:52:19;;;;;;;4.32;0.65;;;14.70;99.90;;;;;;5037835;28;20108;-78
2023/08/04 02:54:45;;;;;;;5.22;0.77;;;14.70;99.90;;;;;;5037913;28;20068;-78
2023/08/04 02:57:10;;;;;;;3.33;0.55;;;15.70;99.90;;;;;;5036158;28;20022;-78
2023/08/04 02:59:36;;;;;;;6.13;1.10;;;14.70;99.90;;;;;;5037495;28;20033;-78
2023/08/04 03:02:02;;;;;;;8.00;0.55;;;14.80;99.90;;;;;;5036360;28;20485;-76
2023/08/04 03:04:27;;;;;;;9.00;0.40;;;14.80;99.90;;;;;;5036167;28;20021;-77
2023/08/04 03:06:53;;;;;;;4.00;0.35;;;14.80;99.90;;;;;;5038083;28;20103;-78
2023/08/04 03:09:19;;;;;;;4.57;0.47;;;14.80;99.90;;;;;;5035961;28;20021;-78
2023/08/04 03:11:44;;;;;;;5.70;0.90;;;14.90;99.90;;;;;;5037223;28;20025;-78
2023/08/04 03:14:10;;;;;;;6.78;1.02;;;14.90;99.90;;;;;;5037678;28;20017;-77
2023/08/04 03:16:35;;;;;;;3.38;0.60;;;14.80;99.90;;;;;;5036221;28;20057;-77
2023/08/04 03:19:01;;;;;;;6.22;0.63;;;14.90;99.90;;;;;;5037233;28;20473;-78
2023/08/04 03:21:26;;;;;;;5.30;0.20;;;15.00;99.90;;;;;;5035924;28;20037;-77
2023/08/04 03:23:52;;;;;;;4.45;0.52;;;14.90;99.90;;;;;;5036503;28;20120;-78
2023/08/04 03:26:17;;;;;;;5.40;0.22;;;15.00;99.90;;;;;;5037786;28;20029;-78
2023/08/04 03:28:43;;;;;;;7.22;1.05;;;15.00;99.90;;;;;;5037611;28;20028;-78
2023/08/04 03:31:08;;;;;;;4.72;0.73;;;15.00;99.90;;;;;;5037687;28;20496;-78
2023/08/04 03:33:35;;;;;;;9.50;0.68;;;15.10;99.90;;;;;;5037119;28;20030;-79
2023/08/04 03:36:00;;;;;;;3.85;0.30;;;15.20;99.90;;;;;;5037083;28;20048;-77
2023/08/04 03:38:26;;;;;;;6.85;0.57;;;15.30;99.90;;;;;;5037464;28;20095;-78
2023/08/04 03:40:51;;;;;;;5.03;0.88;;;15.10;99.90;;;;;;5037724;28;20017;-78
2023/08/04 03:43:17;;;;;;;5.82;0.60;;;15.10;99.90;;;;;;5037845;28;20410;-78
2023/08/04 03:45:42;;;;;;;4.25;0.75;;;15.10;99.90;;;;;;5037688;28;20025;-78
2023/08/04 03:48:08;;;;;;;2.85;0.52;;;15.10;99.90;;;;;;5035983;28;20024;-76
2023/08/04 03:50:34;;;;;;;3.83;0.30;;;15.40;99.90;;;;;;5035812;28;20026;-78
2023/08/04 03:52:59;;;;;;;4.40;0.80;;;15.10;99.90;;;;;;5034621;28;20017;-78
2023/08/04 03:55:26;;;;;;;4.72;0.88;;;15.10;99.90;;;;;;5035976;28;20026;-77
2023/08/04 03:57:51;;;;;;;3.40;0.70;;;15.10;99.90;;;;;;5036004;28;20017;-77
2023/08/04 04:00:17;;;;;;;6.97;0.93;;;15.10;99.90;;;;;;5037145;28;20496;-76
2023/08/04 04:02:42;;;;;;;5.65;0.82;;;15.10;99.90;;;;;;5035468;28;20017;-78
2023/08/04 04:05:08;;;;;;;3.72;0.63;;;15.10;99.90;;;;;;5035903;28;20021;-79
2023/08/04 04:07:34;;;;;;;3.50;0.43;;;15.10;99.90;;;;;;5037272;28;20033;-78
2023/08/04 04:09:59;;;;;;;5.13;0.43;;;15.10;99.90;;;;;;5036718;28;20029;-79
2023/08/04 04:12:25;;;;;;;9.15;0.90;;;15.10;99.90;;;;;;5035618;28;20025;-77
2023/08/04 04:14:50;;;;;;;7.90;0.95;;;15.10;99.90;;;;;;5036927;28;20024;-78
2023/08/04 04:17:16;;;;;;;5.57;0.75;;;15.10;99.90;;;;;;5037159;28;20026;-78
2023/08/04 04:19:42;;;;;;;6.82;0.90;;;15.10;99.90;;;;;;5035478;28;20040;-78
2023/08/04 04:22:09;;;;;;;3.95;1.05;;;15.30;99.90;;;;;;5036800;28;20071;-78
2023/08/04 04:24:35;;;;;;;5.80;0.50;;;15.10;99.90;;;;;;5036065;28;20358;-77
2023/08/04 04:27:01;;;;;;;1.63;0.35;;;15.10;99.90;;;;;;5036093;28;20028;-77
2023/08/04 04:29:26;;;;;;;4.18;0.40;;;15.10;99.90;;;;;;5036388;28;20022;-78
2023/08/04 04:31:52;;;;;;;9.38;1.10;;;15.10;99.90;;;;;;5034352;28;20499;-77
2023/08/04 04:34:17;;;;;;;5.35;0.88;;;15.10;99.90;;;;;;5036140;28;20021;-78
2023/08/04 04:36:43;;;;;;;4.10;0.93;;;15.10;99.90;;;;;;5034773;28;20526;-76
2023/08/04 04:39:09;;;;;;;2.30;0.32;;;15.20;99.90;;;;;;5035712;28;20018;-77
2023/08/04 04:41:34;;;;;;;8.25;0.95;;;15.20;99.90;;;;;;5034365;28;20029;-78
2023/08/04 04:44:00;;;;;;;5.32;0.28;;;15.20;99.90;;;;;;5035638;28;20017;-76
2023/08/04 04:46:25;;;;;;;6.50;0.63;;;15.40;99.90;;;;;;5035913;28;20033;-77
2023/08/04 04:48:51;;;;;;;4.13;1.00;;;15.20;99.90;;;;;;5034432;28;20060;-77
2023/08/04 04:51:17;;;;;;;4.47;1.02;;;15.80;99.90;;;;;;5034068;28;20032;-78
2023/08/04 04:53:42;;;;;;;5.25;0.65;;;15.20;99.90;;;;;;5035411;28;20366;-78
2023/08/04 04:56:08;;;;;;;6.68;0.82;;;15.20;99.90;;;;;;5035880;28;20021;-77
2023/08/04 04:58:33;;;;;;;6.18;1.00;;;15.30;99.90;;;;;;5035112;28;20477;-78
2023/08/04 05:01:03;;;;;;;2.28;0.65;;;15.30;99.90;;;;;;5035929;28;20460;-77
2023/08/04 05:03:28;;;;;;;4.35;0.82;;;15.30;99.90;;;;;;5033772;28;20022;-78
2023/08/04 05:05:54;;;;;;;6.90;1.30;;;15.40;99.90;;;;;;5035179;28;20037;-76
2023/08/04 05:08:19;;;;;;;3.42;0.98;;;15.40;99.90;;;;;;5033825;28;20017;-77
2023/08/04 05:10:52;;;;;;;8.35;1.08;;;15.80;99.90;;;;;;5033860;28;20024;-78
2023/08/04 05:13:17;;;;;;;6.32;1.15;;;15.40;99.90;;;;;;5035386;28;20392;-77
2023/08/04 05:15:45;;;;;;;4.88;1.13;;;15.40;99.90;;;;;;5033921;28;20021;-78
2023/08/04 05:18:11;;;;;;;5.55;1.02;;;15.50;99.90;;;;;;5034938;28;20028;-78
2023/08/04 05:20:36;;;;;;;6.93;0.77;;;15.50;99.90;;;;;;5035854;28;20029;-77
2023/08/04 05:23:02;;;;;;;4.15;1.02;;;15.50;99.90;;;;;;5035057;28;20484;-78
2023/08/04 05:25:27;;;;;;;5.75;0.88;;;15.60;99.90;;;;;;5034647;28;20104;-76
2023/08/04 05:27:53;;;;;;;4.25;0.63;;;15.60;99.90;;;;;;5033323;28;20116;-78
2023/08/04 05:30:18;;;;;;;5.80;1.13;;;15.70;99.90;;;;;;5034736;28;20039;-78
2023/08/04 05:32:44;;;;;;;5.15;0.80;;;15.80;99.90;;;;;;5035147;28;20452;-78
2023/08/04 05:35:09;;;;;;;6.90;0.98;;;15.80;99.90;;;;;;5034799;28;20052;-78
2023/08/04 05:37:36;;;;;;;3.75;0.80;;;15.90;99.90;;;;;;5034031;28;20104;-77
2023/08/04 05:40:04;;;;;;;3.67;0.70;;;15.90;99.90;;;;;;5034061;28;20121;-77
2023/08/04 05:42:29;;;;;;;2.85;1.08;;;15.90;99.90;;;;;;5034191;28;20014;-76
2023/08/04 05:44:55;;;;;;;5.95;0.73;;;15.90;99.90;;;;;;5033923;28;20064;-76
2023/08/04 05:47:25;;;;;;;6.63;1.13;;;16.00;99.90;;;;;;5034185;28;20025;-77
2023/08/04 05:49:51;;;;;;;7.03;0.47;;;16.00;99.90;;;;;;5035842;28;20029;-77
2023/08/04 05:52:16;;;;;;;4.75;0.90;;;16.10;99.90;;;;;;5034529;28;20104;-77
2023/08/04 05:54:42;;;;;;;4.63;0.98;;;16.10;99.90;;;;;;5034645;28;20037;-77
2023/08/04 05:57:07;;;;;;;3.17;0.65;;;16.10;99.90;;;;;;5035538;28;20053;-77
2023/08/04 05:59:33;;;;;;;5.80;1.13;;;16.10;99.90;;;;;;5034608;28;20033;-77
2023/08/04 06:01:59;;;;;;;6.13;1.27;;;16.20;99.90;;;;;;5033383;28;20107;-77
2023/08/04 06:04:24;;;;;;;5.40;0.70;;;16.20;99.90;;;;;;5034852;28;20058;-77
2023/08/04 06:06:50;;;;;;;4.63;0.77;;;16.40;99.90;;;;;;5034647;28;20476;-77
2023/08/04 06:09:15;;;;;;;5.38;0.60;;;16.40;99.90;;;;;;5034938;28;20404;-77
2023/08/04 06:11:41;;;;;;;2.13;0.40;;;16.40;99.90;;;;;;5034154;28;20480;-77
2023/08/04 06:14:07;;;;;;;10.60;1.25;;;16.50;99.90;;;;;;5034089;28;20410;-77
2023/08/04 06:16:32;;;;;;;2.78;0.70;;;16.50;99.90;;;;;;5033058;28;20100;-77
2023/08/04 06:18:58;;;;;;;3.92;0.88;;;16.50;99.90;;;;;;5033514;28;20044;-77
2023/08/04 06:21:23;;;;;;;5.55;0.45;;;16.60;99.90;;;;;;5033795;28;20017;-77
2023/08/04 06:23:49;;;;;;;4.07;0.85;;;16.60;99.90;;;;;;5033580;28;20022;-77
2023/08/04 06:26:15;;;;;;;4.43;0.90;;;16.70;99.90;;;;;;5031921;28;20029;-77
2023/08/04 06:28:41;;;;;;;4.72;0.47;;;16.70;99.90;;;;;;5033785;28;20025;-77
2023/08/04 06:31:06;;;;;;;6.13;0.52;;;16.70;99.90;;;;;;5032094;28;20052;-77
2023/08/04 06:33:32;;;;;;;5.00;1.40;;;16.80;99.90;;;;;;5033127;28;20079;-77
2023/08/04 06:36:00;;;;;;;4.82;0.85;;;17.00;99.90;;;;;;5033464;28;20026;-77
2023/08/04 06:38:26;;;;;;;4.68;0.70;;;16.90;99.90;;;;;;5033453;28;20570;-77
2023/08/04 06:40:52;;;;;;;2.10;0.68;;;17.00;99.90;;;;;;5033367;28;20100;-77
2023/08/04 06:43:17;;;;;;;1.30;0.15;;;17.10;99.90;;;;;;5031891;28;20061;-77
2023/08/04 06:45:43;;;;;;;1.70;0.17;;;17.20;99.90;;;;;;5033417;28;20026;-76
2023/08/04 06:48:08;;;;;;;3.65;0.50;;;17.90;99.90;;;;;;5034024;28;20033;-76
2023/08/04 06:50:34;;;;;;;6.43;0.73;;;17.40;99.90;;;;;;5031851;28;20052;-77
2023/08/04 06:52:59;;;;;;;2.47;0.08;;;17.40;99.90;;;;;;5033251;28;20021;-77
2023/08/04 06:55:25;;;;;;;3.92;0.20;;;17.50;99.90;;;;;;5033386;28;20017;-77
2023/08/04 06:57:50;;;;;;;1.17;0.15;;;17.50;99.90;;;;;;5033262;28;20026;-77
2023/08/04 07:00:17;;;;;;;2.72;0.10;;;17.60;99.90;;;;;;5032680;28;20098;-77
2023/08/04 07:02:50;;;;;;;1.48;0.20;;;17.60;99.90;;;;;;5032427;28;20075;-76
2023/08/04 07:05:15;;;;;;;5.97;0.30;;;17.60;99.90;;;;;;5033757;28;20052;-76
2023/08/04 07:07:42;;;;;;;1.00;0.10;;;17.80;99.90;;;;;;5032451;28;20037;-76
2023/08/04 07:10:08;;;;;;;6.72;0.30;;;17.70;99.90;;;;;;5033615;28;20033;-77
2023/08/04 07:12:33;;;;;;;1.60;0.35;;;17.90;99.90;;;;;;5033678;28;20033;-76
2023/08/04 07:14:59;;;;;;;2.88;0.10;;;18.00;99.90;;;;;;5032319;28;20018;-78
2023/08/04 07:17:24;;;;;;;3.97;0.30;;;18.10;99.90;;;;;;5033476;28;20030;-77
2023/08/04 07:19:50;;;;;;;1.25;0.03;;;18.20;99.90;;;;;;5033796;28;20014;-77
2023/08/04 07:22:15;;;;;;;4.47;0.50;;;18.30;99.90;;;;;;5032485;28;20026;-77
2023/08/04 07:24:41;;;;;;;1.08;0.28;;;18.30;99.90;;;;;;5033182;28;20018;-77
2023/08/04 07:27:06;;;;;;;4.55;0.20;;;18.40;99.90;;;;;;5034268;28;20025;-77
2023/08/04 07:29:34;;;;;;;2.05;0.08;;;18.50;99.90;;;;;;5037243;28;20484;-77
2023/08/04 07:32:00;;;;;;;3.28;0.40;;;18.50;99.90;;;;;;5036977;28;20021;-76
2023/08/04 07:34:26;;;;;;;0.57;0.00;;;18.40;99.90;;;;;;5036615;28;20033;-77
2023/08/04 07:36:51;;;;;;;1.33;0.00;;;18.20;99.90;;;;;;5036672;28;20021;-76
2023/08/04 07:39:17;;;;;;;0.80;0.03;;;17.90;99.90;;;;;;5034990;28;20033;-76
2023/08/04 07:41:42;;;;;;;7.22;0.90;;;17.70;99.90;;;;;;5037285;28;20037;-76
2023/08/04 07:44:08;;;;;;;0.85;0.08;;;17.50;99.90;;;;;;5037058;28;20368;-76
2023/08/04 07:46:33;;;;;;;1.15;0.28;;;17.40;99.90;;;;;;5036598;28;20032;-76
2023/08/04 07:48:59;;;;;;;2.40;0.20;;;17.30;99.90;;;;;;5035465;28;20029;-76
2023/08/04 07:51:24;;;;;;;0.70;0.17;;;17.30;99.90;;;;;;5036537;28;20025;-76
2023/08/04 07:53:50;;;;;;;1.77;0.20;;;17.50;99.90;;;;;;5036259;28;20064;-76
2023/08/04 07:56:16;;;;;;;7.50;0.40;;;17.70;99.90;;;;;;5036937;28;20061;-76
2023/08/04 07:58:41;;;;;;;1.98;0.10;;;17.50;99.90;;;;;;5034770;28;20022;-76
2023/08/04 08:01:07;;;;;;;1.58;0.38;;;17.50;99.90;;;;;;5036239;28;20036;-76
2023/08/04 08:03:33;;;;;;;2.83;0.15;;;17.60;99.90;;;;;;5036046;28;20026;-76
2023/08/04 08:06:00;;;;;;;0.10;0.00;;;17.80;99.90;;;;;;5036147;28;20481;-76
2023/08/04 08:08:27;;;;;;;0.32;0.03;;;18.00;99.90;;;;;;5036119;28;20026;-76
2023/08/04 08:10:52;;;;;;;1.40;0.10;;;18.20;99.90;;;;;;5034536;28;20024;-76
2023/08/04 08:13:18;;;;;;;1.58;0.00;;;18.30;99.90;;;;;;5035027;28;20017;-76
2023/08/04 08:15:44;;;;;;;3.38;0.00;;;18.40;99.90;;;;;;5036856;28;20057;-76
2023/08/04 08:18:09;;;;;;;0.52;0.00;;;18.50;99.90;;;;;;5034671;28;20017;-76
2023/08/04 08:20:38;;;;;;;1.02;0.10;;;18.50;99.90;;;;;;5035770;28;20022;-76
2023/08/04 08:23:03;;;;;;;;;;;18.50;99.90;;;;;;5036105;28;20089;-76
2023/08/04 08:25:29;;;;;;;0.25;0.00;;;18.40;99.90;;;;;;5035915;28;19947;-76
2023/08/04 08:27:55;;;;;;;5.20;0.40;;;18.40;99.90;;;;;;5034605;28;20485;-76
2023/08/04 08:30:20;;;;;;;1.45;0.22;;;18.40;99.90;;;;;;5035653;28;20081;-76
2023/08/04 08:32:46;;;;;;;1.65;0.00;;;18.40;99.90;;;;;;5035700;28;20033;-76
2023/08/04 08:35:11;;;;;;;0.73;0.03;;;18.50;99.90;;;;;;5034821;28;20014;-75
2023/08/04 08:37:37;;;;;;;1.08;0.15;;;18.50;99.90;;;;;;5035077;28;20031;-77
2023/08/04 08:40:03;;;;;;;0.57;0.00;;;18.60;99.90;;;;;;5035619;28;20100;-77
2023/08/04 08:42:28;;;;;;;3.03;0.00;;;18.40;99.90;;;;;;5035772;28;20018;-77
2023/08/04 08:44:54;;;;;;;3.03;0.38;;;18.40;99.90;;;;;;5035737;28;20021;-76
2023/08/04 08:47:22;;;;;;;2.28;0.20;;;18.30;99.90;;;;;;5035273;28;20092;-77
2023/08/04 08:49:51;;;;;;;0.52;0.00;;;18.20;99.90;;;;;;5035294;28;20044;-76
2023/08/04 08:52:18;;;;;;;1.60;0.00;;;18.20;99.90;;;;;;5035987;28;20108;-77
2023/08/04 08:54:44;;;;;;;2.60;0.45;;;18.20;99.90;;;;;;5035550;28;20021;-76
2023/08/04 08:57:10;;;;;;;2.25;0.13;;;18.10;99.90;;;;;;5034158;28;20476;-77
2023/08/04 08:59:36;;;;;;;1.88;0.08;;;18.40;99.90;;;;;;5035396;28;20037;-77
2023/08/04 09:02:02;;;;;;;2.95;0.10;;;18.50;99.90;;;;;;5035744;28;20136;-76
2023/08/04 09:04:36;;;;;;;1.05;0.10;;;18.70;99.90;;;;;;5034701;28;20022;-76
2023/08/04 09:07:01;;;;;;;0.52;0.20;;;18.90;99.90;;;;;;5034867;28;20022;-76
2023/08/04 09:09:27;;;;;;;3.55;0.00;;;19.30;99.90;;;;;;5034830;28;20032;-76
2023/08/04 09:11:55;;;;;;;2.88;0.10;;;19.00;99.90;;;;;;5034825;28;20025;-77
2023/08/04 09:14:21;;;;;;;2.80;0.10;;;19.30;99.90;;;;;;5034828;28;20018;-76
2023/08/04 09:16:48;;;;;;;2.80;0.20;;;19.60;99.90;;;;;;5035648;28;20033;-77
2023/08/04 09:19:14;;;;;;;1.85;0.10;;;19.80;99.90;;;;;;5035015;28;20032;-76
2023/08/04 09:21:40;;;;;;;0.93;0.20;;;19.90;99.90;;;;;;5034835;28;20058;-77
2023/08/04 09:24:09;;;;;;;2.50;0.45;;;20.10;99.90;;;;;;5035125;28;20488;-77
2023/08/04 09:26:44;;;;;;;1.75;0.20;;;20.50;99.90;;;;;;5034768;28;20033;-76
2023/08/04 09:29:11;;;;;;;2.25;0.03;;;20.70;99.90;;;;;;5034765;28;20042;-77
2023/08/04 09:31:41;;;;;;;2.95;0.10;;;20.90;99.90;;;;;;5034698;28;20488;-77
2023/08/04 09:34:11;;;;;;;2.90;0.43;;;20.90;99.90;;;;;;5034707;28;20065;-76
2023/08/04 09:36:47;;;;;;;4.75;0.55;;;20.80;99.90;;;;;;5034732;28;20028;-77
2023/08/04 09:39:13;;;;;;;2.75;0.38;;;20.70;99.90;;;;;;5033681;28;20043;-77
2023/08/04 09:41:44;;;;;;;5.07;0.20;;;20.60;99.90;;;;;;5033375;28;20033;-76
2023/08/04 09:44:10;;;;;;;1.65;0.05;;;20.60;99.90;;;;;;5034656;28;20056;-76
2023/08/04 09:46:47;;;;;;;3.00;0.00;;;20.60;99.90;;;;;;5034338;28;20041;-77
2023/08/04 09:49:13;;;;;;;2.15;0.00;;;20.60;99.90;;;;;;5033254;28;20108;-75
2023/08/04 09:51:41;;;;;;;0.95;0.00;;;20.60;99.90;;;;;;5034354;28;20025;-76
2023/08/04 09:54:07;;;;;;;2.03;0.20;;;20.70;99.90;;;;;;5034310;28;20021;-76
2023/08/04 09:56:33;;;;;;;2.38;0.22;;;20.80;99.90;;;;;;5033003;28;20029;-76
2023/08/04 09:58:59;;;;;;;2.13;0.40;;;21.00;99.90;;;;;;5034133;28;20061;-76
2023/08/04 10:01:25;;;;;;;1.75;0.05;;;21.00;99.90;;;;;;5033115;28;20040;-75
2023/08/04 10:03:54;;;;;;;2.05;0.10;;;21.10;99.90;;;;;;5034383;28;20469;-77
2023/08/04 10:06:20;;;;;;;1.27;0.10;;;21.00;99.90;;;;;;5034108;28;20511;-77
2023/08/04 10:08:48;;;;;;;1.95;0.10;;;21.10;99.90;;;;;;5034159;28;20481;-77
2023/08/04 10:11:13;;;;;;;2.40;0.17;;;21.00;99.90;;;;;;5034056;28;20021;-77
2023/08/04 10:13:44;;;;;;;1.85;0.10;;;21.10;99.90;;;;;;5032777;28;20014;-76
2023/08/04 10:16:14;;;;;;;1.08;0.00;;;21.10;99.90;;;;;;5033746;28;20566;-76
2023/08/04 10:18:50;;;;;;;0.68;0.17;;;21.20;99.90;;;;;;5033877;28;20437;-76
2023/08/04 10:21:18;;;;;;;3.13;0.10;;;21.30;99.90;;;;;;5032421;28;20025;-77
2023/08/04 10:23:47;;;;;;;1.13;0.35;;;21.30;99.90;;;;;;5032893;28;20014;-76
2023/08/04 10:26:12;;;;;;;;;;;21.30;99.90;;;;;;5033098;28;20147;-77
2023/08/04 10:29:04;;;;;;;3.25;0.45;;;21.30;99.90;;;;;;5033778;28;19948;-75
2023/08/04 10:31:58;;;;;;;4.13;0.45;;;21.30;99.90;;;;;;5032715;28;20025;-76
2023/08/04 10:34:35;;;;;;;3.83;0.20;;;21.20;99.90;;;;;;5034091;28;20503;-77
2023/08/04 10:37:04;;;;;;;2.65;0.00;;;21.30;99.90;;;;;;5034314;28;20026;-76
2023/08/04 10:39:38;;;;;;;0.47;0.15;;;21.30;99.90;;;;;;5033954;28;20053;-77
2023/08/04 10:42:11;;;;;;;1.90;0.00;;;21.40;99.90;;;;;;5033765;28;20017;-77
2023/08/04 10:44:52;;;;;;;1.15;0.55;;;21.40;99.90;;;;;;5033572;28;20526;-76
2023/08/04 10:47:45;;;;;;;1.33;0.00;;;21.60;99.90;;;;;;5033592;28;20099;-77
2023/08/04 10:50:12;;;;;;;1.70;0.00;;;21.70;99.90;;;;;;5032369;28;20563;-76
2023/08/04 10:52:38;;;;;;;0.43;0.13;;;21.90;99.90;;;;;;5032570;28;20080;-76
2023/08/04 10:55:07;;;;;;;2.60;0.32;;;22.00;99.90;;;;;;5033575;28;20481;-77
2023/08/04 10:57:33;;;;;;;2.92;0.20;;;22.20;99.90;;;;;;5032416;28;20419;-77
2023/08/04 11:00:00;;;;;;;0.47;0.00;;;22.40;99.90;;;;;;5032583;28;20392;-77
2023/08/04 11:02:27;;;;;;;2.50;0.20;;;22.50;99.90;;;;;;5036742;28;20017;-77
2023/08/04 11:04:53;;;;;;;0.55;0.10;;;22.40;99.90;;;;;;5038201;28;20022;-76
2023/08/04 11:07:20;;;;;;;1.95;0.00;;;22.40;99.90;;;;;;5037767;28;20024;-75
2023/08/04 11:09:47;;;;;;;1.50;0.03;;;22.30;99.90;;;;;;5038029;28;20033;-76
2023/08/04 11:12:14;;;;;;;1.13;0.28;;;22.30;99.90;;;;;;5037856;28;20476;-76
2023/08/04 11:14:39;;;;;;;1.00;0.00;;;22.40;99.90;;;;;;5037725;28;20026;-77
2023/08/04 11:17:17;;;;;;;0.22;0.00;;;22.80;99.90;;;;;;5037646;28;20095;-77
2023/08/04 11:19:44;;;;;;;0.93;0.00;;;22.90;99.90;;;;;;5037475;28;20041;-76
2023/08/04 11:22:13;;;;;;;1.35;0.05;;;23.20;99.90;;;;;;5036055;28;20022;-76
2023/08/04 11:24:39;;;;;;;4.50;0.00;;;23.40;99.90;;;;;;5037244;28;20488;-76
2023/08/04 11:27:05;;;;;;;0.65;0.00;;;23.70;99.90;;;;;;5037293;28;20021;-77
2023/08/04 11:29:31;;;;;;;1.52;0.32;;;23.70;99.90;;;;;;5037258;28;20052;-76
2023/08/04 11:31:56;;;;;;;0.32;0.00;;;23.40;99.90;;;;;;5036989;28;20481;-77
2023/08/04 11:34:22;;;;;;;1.42;0.20;;;23.10;99.90;;;;;;5035650;28;20025;-76
2023/08/04 11:36:49;;;;;;;0.30;0.00;;;23.20;99.90;;;;;;5035641;28;20031;-76
2023/08/04 11:39:15;;;;;;;0.50;0.00;;;23.40;99.90;;;;;;5037199;28;20064;-76
2023/08/04 11:41:42;;;;;;;2.05;0.28;;;23.90;99.90;;;;;;5037346;28;20026;-77
2023/08/04 11:44:08;;;;;;;0.00;0.00;;;24.30;99.90;;;;;;5036030;28;20519;-77
2023/08/04 11:46:34;;;;;;;1.30;0.17;;;24.60;99.90;;;;;;5035572;28;20026;-76
2023/08/04 11:49:04;;;;;;;0.45;0.00;;;25.00;99.90;;;;;;5037053;28;20029;-76
2023/08/04 11:51:30;;;;;;;0.20;0.00;;;25.30;99.90;;;;;;5037148;28;20021;-77
2023/08/04 11:53:56;;;;;;;1.15;0.32;;;25.50;99.90;;;;;;5036742;28;20388;-76
2023/08/04 11:56:21;;;;;;;0.10;0.00;;;25.60;99.90;;;;;;5037405;28;20022;-76
2023/08/04 11:58:50;;;;;;;0.85;0.10;;;25.70;99.90;;;;;;5036447;28;20087;-76
2023/08/04 12:01:33;;;;;;;1.63;0.22;;;25.70;99.90;;;;;;5035441;28;20101;-76
2023/08/04 12:03:58;;;;;;;0.63;0.00;;;25.90;99.90;;;;;;5034928;28;20028;-75
2023/08/04 12:06:26;;;;;;;0.88;0.00;;;25.60;99.90;;;;;;5036726;28;20104;-77
2023/08/04 12:08:54;;;;;;;1.30;0.00;;;25.20;99.90;;;;;;5036374;28;20022;-76
2023/08/04 12:11:21;;;;;;;0.20;0.00;;;24.70;99.90;;;;;;5036444;28;20021;-76
2023/08/04 12:13:47;;;;;;;2.42;0.10;;;24.30;99.90;;;;;;5035349;28;20053;-77
2023/08/04 12:16:14;;;;;;;0.98;0.08;;;24.10;99.90;;;;;;5037124;28;20028;-80
2023/08/04 12:18:40;;;;;;;0.20;0.13;;;24.00;99.90;;;;;;5035111;28;20112;-75
2023/08/04 12:21:06;;;;;;;0.52;0.08;;;23.70;99.90;;;;;;5035878;28;20353;-76
2023/08/04 12:23:32;;;;;;;1.65;0.00;;;23.50;99.90;;;;;;5035094;28;20401;-76
2023/08/04 12:25:58;;;;;;;2.25;0.20;;;23.30;99.90;;;;;;5034572;28;20014;-77
2023/08/04 12:28:23;;;;;;;0.10;0.00;;;23.30;99.90;;;;;;5034843;28;20026;-77
2023/08/04 12:30:50;;;;;;;0.43;0.00;;;23.40;99.90;;;;;;5036145;28;20030;-76
2023/08/04 12:33:15;;;;;;;0.00;0.00;;;23.50;99.90;;;;;;5035607;28;20083;-76
2023/08/04 12:35:41;;;;;;;1.65;0.00;;;23.90;99.90;;;;;;5034543;28;20022;-75
2023/08/04 12:38:07;;;;;;;3.30;0.05;;;24.10;99.90;;;;;;5036318;28;20083;-77
2023/08/04 12:40:33;;;;;;;0.40;0.00;;;24.10;99.90;;;;;;5035940;28;20026;-77
2023/08/04 12:42:59;;;;;;;0.57;0.00;;;24.00;99.90;;;;;;5034789;28;20029;-76
2023/08/04 12:45:24;;;;;;;2.42;0.03;;;24.00;99.90;;;;;;5035468;28;20072;-76